Custer, SD (57730)

6:01 PM MDT on August 26, 2016 (GMT -0600)
Hay Creek Road | | Change Station

Elev 5325 ft 43.70 °N, 103.67 °W | Updated 1 second ago

Partly Cloudy
Partly Cloudy
64.2 °F
Feels Like 64.2 °F
N
0.0
Wind Variable Wind from South
Gusts 0.0 mph

Today
High -- | Low -- °F
--% Chance of Precip.
Yesterday
High -- | Low -- °F
Precip. -- in
Pressure 29.96 in
Visibility 10.0 miles
Clouds Few 3600 ft
Dew Point 49 °F
Humidity 58%
Rainfall 0.83 in
Snow Depth Not available.
6:12 AM 7:39 PM
Waning Crescent, 30% visible
METAR KCUT 262353Z AUTO 24004KT 10SM FEW036 17/08 A3008 RMK AO2 LTG DSNT N AND NE SLP143 T01720078 10178 20100 55006
Pressure 29.96 in
Visibility 10.0 miles
Clouds Few 3600 ft
Dew Point 49 °F
Humidity 58%
Rainfall 0.83 in
Snow Depth Not available.
6:12 AM 7:39 PM
Waning Crescent, 30% visible
METAR KCUT 262353Z AUTO 24004KT 10SM FEW036 17/08 A3008 RMK AO2 LTG DSNT N AND NE SLP143 T01720078 10178 20100 55006

10-Day Weather Forecast

Almanac

Astronomy

Aug. 26, 2016 Rise Set
Actual Time
Civil Twilight
Nautical Twilight
Astronomical Twilight
Moon
Length of Visible Light
Length of Day
Tomorrow will be .
, % of the Moon is Illuminated

Today's Extremes

State Highs State Lows

Community

WunderPhotos

Upload Photos

1,935,255 photos uploaded!

WunderBlog® & News

Nearby

Air Quality

  Air Quality AQ Index Pollutant
Not available.

Snow Depth

Station Depth Elevation

Earthquake Activity

City Distance Mag. Time & Date
Minimum magnitude displayed is 2.5.

Coastal Water Temperatures

Place Temperature

Stations

Nearby Weather Stations

Station Location Temp. Windchill Dew Point Humidity Wind Precip. Elev Updated Type
                   

Watches & Warnings

There are currently no watches in effect.